createdAt,value
2023-03-12T00:00:40.096Z,-0.71
2023-03-12T00:05:44.616Z,-0.60
2023-03-12T00:10:46.397Z,-0.63
2023-03-12T00:15:48.813Z,-0.69
2023-03-12T00:20:55.847Z,-0.67
2023-03-12T00:26:01.833Z,-0.71
2023-03-12T00:31:13.814Z,-0.64
2023-03-12T00:36:17.462Z,-0.56
2023-03-12T00:41:19.935Z,-0.51
2023-03-12T00:46:22.676Z,-0.62
2023-03-12T00:51:26.142Z,-0.63
2023-03-12T00:56:28.200Z,-0.56
2023-03-12T01:01:30.583Z,-0.54
2023-03-12T01:06:34.571Z,-0.48
2023-03-12T01:11:38.628Z,-0.58
2023-03-12T01:16:41.058Z,-0.56
2023-03-12T01:21:44.678Z,-0.56
2023-03-12T01:26:47.078Z,-0.68
2023-03-12T01:31:49.508Z,-0.68
2023-03-12T01:36:52.983Z,-0.72
2023-03-12T01:41:54.962Z,-0.85
2023-03-12T01:46:57.385Z,-0.87
2023-03-12T01:52:04.190Z,-0.75
2023-03-12T01:57:10.546Z,-0.56
2023-03-12T02:02:14.221Z,-0.46
2023-03-12T02:07:18.163Z,-0.20
2023-03-12T02:12:20.297Z,-0.14
2023-03-12T02:17:22.182Z,-0.11
2023-03-12T02:22:26.239Z,0.06
2023-03-12T02:27:30.339Z,0.09
2023-03-12T02:32:35.670Z,0.19
2023-03-12T02:37:48.360Z,0.30
2023-03-12T02:42:52.590Z,0.33
2023-03-12T02:47:54.684Z,0.33
2023-03-12T02:52:56.969Z,0.43
2023-03-12T02:58:00.079Z,0.44
2023-03-12T03:03:02.604Z,0.41
2023-03-12T03:08:05.727Z,0.52
2023-03-12T03:13:09.400Z,0.58
2023-03-12T03:18:11.626Z,0.52
2023-03-12T03:23:13.757Z,0.47
2023-03-12T03:28:17.323Z,0.53
2023-03-12T03:33:22.793Z,0.49
2023-03-12T03:38:25.279Z,0.43
2023-03-12T03:43:29.033Z,0.30
2023-03-12T03:48:31.979Z,0.02
2023-03-12T03:53:34.867Z,0.04
2023-03-12T03:58:38.596Z,0.13
2023-03-12T04:03:40.979Z,0.10
2023-03-12T04:08:43.158Z,0.09
2023-03-12T04:13:46.555Z,0.08
2023-03-12T04:18:48.729Z,0.05
2023-03-12T04:23:50.427Z,-0.09
2023-03-12T04:28:53.902Z,-0.17
2023-03-12T04:33:55.866Z,-0.31
2023-03-12T04:39:01.390Z,-0.47
2023-03-12T04:44:05.649Z,-0.71
2023-03-12T04:49:07.803Z,-0.82
2023-03-12T04:54:10.018Z,-0.99
2023-03-12T04:59:13.444Z,-1.16
2023-03-12T05:04:21.774Z,-1.34
2023-03-12T05:09:23.873Z,-1.54
2023-03-12T05:14:27.058Z,-1.71
2023-03-12T05:19:28.811Z,-1.79
2023-03-12T05:24:31.012Z,-1.93
2023-03-12T05:29:34.687Z,-2.08
2023-03-12T05:34:37.164Z,-2.23
2023-03-12T05:39:39.165Z,-2.37
2023-03-12T05:44:42.968Z,-2.41
2023-03-12T05:49:45.231Z,-2.37
2023-03-12T05:54:47.402Z,-2.31
2023-03-12T05:59:50.908Z,-2.41
2023-03-12T06:04:52.900Z,-2.30
2023-03-12T06:09:55.414Z,-2.22
2023-03-12T06:14:59.235Z,-2.16
2023-03-12T06:20:01.027Z,-2.07
2023-03-12T06:25:03.332Z,-2.00
2023-03-12T06:30:08.284Z,-1.86
2023-03-12T06:35:10.318Z,-1.75
2023-03-12T06:40:13.323Z,-1.59
2023-03-12T06:45:16.770Z,-1.37
2023-03-12T06:50:18.733Z,-1.17
2023-03-12T06:55:20.545Z,-0.98
2023-03-12T07:00:24.536Z,-0.83
2023-03-12T07:05:29.477Z,-0.60
2023-03-12T07:10:32.389Z,-0.46
2023-03-12T07:15:41.700Z,-0.32
2023-03-12T07:20:44.601Z,-0.08
2023-03-12T07:25:47.424Z,0.15
2023-03-12T07:30:51.275Z,0.51
2023-03-12T07:35:53.699Z,1.00
2023-03-12T07:40:57.743Z,1.29
2023-03-12T07:46:01.366Z,1.48
2023-03-12T07:51:03.532Z,1.45
2023-03-12T07:56:06.707Z,1.33
2023-03-12T08:01:09.931Z,1.51
2023-03-12T08:06:12.059Z,1.82
2023-03-12T08:11:14.244Z,1.82
2023-03-12T08:16:18.020Z,1.96
2023-03-12T08:21:20.122Z,2.19
2023-03-12T08:26:22.084Z,2.64
2023-03-12T08:31:25.224Z,2.73
2023-03-12T08:36:27.785Z,2.77
2023-03-12T08:41:29.700Z,3.01
2023-03-12T08:46:32.984Z,3.15
2023-03-12T08:51:35.137Z,3.59
2023-03-12T08:56:37.085Z,3.82
2023-03-12T09:01:43.633Z,3.77
2023-03-12T09:06:45.787Z,3.74
2023-03-12T09:11:48.517Z,4.08
2023-03-12T09:16:52.136Z,4.38
2023-03-12T09:21:54.275Z,4.21
2023-03-12T09:26:56.105Z,4.43
2023-03-12T09:32:00.103Z,4.79
2023-03-12T09:37:02.698Z,5.14
2023-03-12T09:42:07.566Z,5.24
2023-03-12T09:47:22.891Z,5.44
2023-03-12T09:52:29.923Z,6.27
2023-03-12T09:57:32.188Z,6.03
2023-03-12T10:02:55.568Z,8.48
2023-03-12T10:08:22.834Z,8.67
2023-03-12T10:13:49.914Z,8.73
2023-03-12T10:19:13.285Z,8.54
2023-03-12T10:24:27.271Z,9.38
2023-03-12T10:29:32.539Z,9.12
2023-03-12T10:34:43.024Z,10.03
2023-03-12T10:39:45.969Z,9.99
2023-03-12T10:44:51.164Z,10.31
2023-03-12T10:49:54.408Z,11.98
2023-03-12T10:54:56.144Z,14.02
2023-03-12T11:00:07.904Z,11.04
2023-03-12T11:05:22.551Z,13.99
2023-03-12T11:10:26.280Z,9.87
2023-03-12T11:15:30.850Z,7.65
2023-03-12T11:20:34.362Z,7.75
2023-03-12T11:25:36.446Z,7.64
2023-03-12T11:30:40.755Z,7.47
2023-03-12T11:35:52.265Z,7.00
2023-03-12T11:41:08.214Z,6.52
2023-03-12T11:46:23.090Z,6.65
2023-03-12T11:51:36.290Z,6.63
2023-03-12T11:56:45.488Z,6.74
2023-03-12T12:01:58.585Z,7.17
2023-03-12T12:07:12.370Z,7.19
2023-03-12T12:12:28.423Z,6.92
2023-03-12T12:17:44.451Z,7.22
2023-03-12T12:23:06.137Z,7.31
2023-03-12T12:28:26.791Z,7.63
2023-03-12T12:33:43.450Z,7.74
2023-03-12T12:38:52.742Z,7.01
2023-03-12T12:44:05.694Z,7.38
2023-03-12T12:49:12.808Z,6.78
2023-03-12T12:54:23.750Z,6.88
2023-03-12T12:59:37.863Z,6.69
2023-03-12T13:04:40.230Z,6.28
2023-03-12T13:09:45.892Z,6.13
2023-03-12T13:15:36.490Z,6.07
2023-03-12T13:20:45.554Z,5.99
2023-03-12T13:25:58.538Z,5.89
2023-03-12T13:31:04.049Z,5.69
2023-03-12T13:36:19.069Z,5.26
2023-03-12T13:41:31.924Z,5.32
2023-03-12T13:46:41.812Z,5.42
2023-03-12T13:51:47.884Z,5.68
2023-03-12T13:56:57.381Z,5.58
2023-03-12T14:02:21.315Z,5.35
2023-03-12T14:07:51.677Z,5.38
2023-03-12T14:13:02.623Z,5.53
2023-03-12T14:18:15.542Z,5.12
2023-03-12T14:23:18.084Z,4.81
2023-03-12T14:28:22.636Z,4.68
2023-03-12T14:33:27.355Z,4.65
2023-03-12T14:38:32.627Z,4.65
2023-03-12T14:43:35.731Z,4.66
2023-03-12T14:48:39.007Z,4.76
2023-03-12T14:53:40.841Z,4.61
2023-03-12T14:58:45.709Z,4.68
2023-03-12T15:03:53.208Z,4.64
2023-03-12T15:08:56.273Z,4.68
2023-03-12T15:14:05.985Z,4.67
2023-03-12T15:19:13.371Z,4.60
2023-03-12T15:24:17.205Z,4.65
2023-03-12T15:29:23.310Z,4.63
2023-03-12T15:34:32.995Z,4.61
2023-03-12T15:39:37.435Z,4.66
2023-03-12T15:44:45.749Z,4.49
2023-03-12T15:49:53.229Z,4.55
2023-03-12T15:55:05.656Z,4.31
2023-03-12T16:00:16.981Z,4.00
2023-03-12T16:05:22.814Z,3.89
2023-03-12T16:10:27.253Z,3.87
2023-03-12T16:15:31.943Z,3.73
2023-03-12T16:20:35.271Z,3.77
2023-03-12T16:25:37.557Z,3.63
2023-03-12T16:30:39.679Z,3.59
2023-03-12T16:35:42.914Z,3.56
2023-03-12T16:40:48.342Z,3.61
2023-03-12T16:45:52.815Z,3.63
2023-03-12T16:50:57.902Z,3.55
2023-03-12T16:56:02.007Z,3.46
2023-03-12T17:01:04.498Z,3.31
2023-03-12T17:06:14.934Z,3.11
2023-03-12T17:11:19.068Z,3.04
2023-03-12T17:16:20.964Z,2.96
2023-03-12T17:21:24.101Z,2.92
2023-03-12T17:26:26.204Z,2.82
2023-03-12T17:31:28.401Z,2.84
2023-03-12T17:36:31.810Z,2.83
2023-03-12T17:41:33.804Z,2.82
2023-03-12T17:46:36.310Z,2.80
2023-03-12T17:51:40.179Z,2.78
2023-03-12T17:56:42.362Z,2.75
2023-03-12T18:01:44.203Z,2.70
2023-03-12T18:06:47.320Z,2.72
2023-03-12T18:11:49.550Z,2.75
2023-03-12T18:16:51.375Z,2.73
2023-03-12T18:21:55.354Z,2.72
2023-03-12T18:26:57.399Z,2.73
2023-03-12T18:31:59.424Z,2.70
2023-03-12T18:37:03.083Z,2.73
2023-03-12T18:42:05.676Z,2.71
2023-03-12T18:47:07.981Z,2.71
2023-03-12T18:52:11.184Z,2.72
2023-03-12T18:57:13.037Z,2.70
2023-03-12T19:02:15.661Z,2.76
2023-03-12T19:07:19.022Z,2.77
2023-03-12T19:12:21.793Z,2.82
2023-03-12T19:17:24.111Z,2.83
2023-03-12T19:22:27.761Z,2.82
2023-03-12T19:27:30.059Z,2.92
2023-03-12T19:32:42.234Z,2.92
2023-03-12T19:37:47.677Z,3.02
2023-03-12T19:42:50.446Z,3.10
2023-03-12T19:47:53.081Z,3.19
2023-03-12T19:52:57.082Z,3.27
2023-03-12T19:58:00.542Z,3.37
2023-03-12T20:03:02.969Z,3.45
2023-03-12T20:08:07.181Z,3.53
2023-03-12T20:13:09.934Z,3.62
2023-03-12T20:18:12.466Z,3.66
2023-03-12T20:23:18.829Z,3.71
2023-03-12T20:28:22.100Z,3.74
2023-03-12T20:33:24.664Z,3.81
2023-03-12T20:38:28.511Z,3.94
2023-03-12T20:43:34.065Z,4.00
2023-03-12T20:48:37.063Z,4.11
2023-03-12T20:53:40.484Z,4.21
2023-03-12T20:58:42.680Z,4.36
2023-03-12T21:03:45.159Z,4.46
2023-03-12T21:08:48.633Z,4.58
2023-03-12T21:13:50.809Z,4.64
2023-03-12T21:18:56.153Z,4.70
2023-03-12T21:24:01.152Z,4.77
2023-03-12T21:29:03.905Z,4.83
2023-03-12T21:34:08.127Z,4.88
2023-03-12T21:39:13.072Z,4.98
2023-03-12T21:44:16.711Z,4.96
2023-03-12T21:49:19.010Z,4.95
2023-03-12T21:54:22.642Z,4.94
2023-03-12T21:59:24.860Z,4.98
2023-03-12T22:04:27.763Z,4.99
2023-03-12T22:09:31.449Z,4.99
2023-03-12T22:14:33.408Z,4.99
2023-03-12T22:19:35.511Z,5.04
2023-03-12T22:24:39.109Z,5.13
2023-03-12T22:29:41.535Z,5.24
2023-03-12T22:34:43.545Z,5.26
2023-03-12T22:39:47.173Z,5.31
2023-03-12T22:44:49.556Z,5.31
2023-03-12T22:49:51.746Z,5.30
2023-03-12T22:54:55.164Z,5.37
2023-03-12T22:59:57.622Z,5.40
2023-03-12T23:05:00.028Z,5.46
2023-03-12T23:10:04.614Z,5.48
2023-03-12T23:15:14.918Z,5.51
2023-03-12T23:20:16.904Z,5.60
2023-03-12T23:25:20.317Z,5.63
2023-03-12T23:30:22.846Z,5.72
2023-03-12T23:35:25.013Z,5.78
2023-03-12T23:40:28.589Z,5.80
2023-03-12T23:45:30.716Z,5.82
2023-03-12T23:50:33.461Z,5.92
2023-03-12T23:55:36.563Z,5.94
